String Prairie, Texas
Current Conditions -  °F | °C
As of 10:10 AM on Saturday 20 Dec 2014 (Local Time) from K3T5 Reporting Station
Overcast Overcast  
Wind Chill: 53°   Ceiling: 1000
Heat Index: 53°   Visibility: 10mi
Dew Point: 49°   Wind: 6mph
Humidity: 89%   Direction: 360°N
Pressure: 30.22"   Gusts: NA
Location:  29.8725°N, 97.3223°W
Report Text: K3T5 201610Z AUTO 36005KT 10SM OVC010 11/10 A3022 RMK AO2 T01140096
Loading
Personal Weather Stations






























Interactive Weather Map New forecast layout! Learn more

10-Day Weather Forecast

Advertisements
Track Severe Weather on mobile